createdAt,value
2023-05-04T00:01:11.097Z,42.38
2023-05-04T00:03:38.964Z,40.72
2023-05-04T00:06:06.973Z,30.50
2023-05-04T00:08:34.138Z,44.50
2023-05-04T00:11:02.081Z,31.92
2023-05-04T00:13:29.832Z,42.30
2023-05-04T00:15:57.552Z,37.88
2023-05-04T00:18:24.895Z,33.08
2023-05-04T00:20:54.015Z,31.00
2023-05-04T00:23:21.367Z,39.08
2023-05-04T00:25:48.702Z,38.90
2023-05-04T00:28:16.542Z,51.22
2023-05-04T00:30:44.240Z,42.53
2023-05-04T00:33:11.893Z,52.70
2023-05-04T00:35:40.127Z,42.20
2023-05-04T00:38:07.913Z,42.65
2023-05-04T00:40:36.458Z,27.50
2023-05-04T00:43:04.023Z,46.92
2023-05-04T00:45:32.076Z,41.03
2023-05-04T00:47:59.580Z,35.33
2023-05-04T00:50:28.714Z,40.53
2023-05-04T00:52:58.525Z,43.58
2023-05-04T00:55:26.350Z,39.15
2023-05-04T00:57:53.865Z,47.67
2023-05-04T01:00:21.576Z,40.45
2023-05-04T01:02:50.148Z,36.97
2023-05-04T01:05:17.871Z,46.10
2023-05-04T01:08:09.922Z,38.15
2023-05-04T01:10:55.184Z,49.90
2023-05-04T01:13:22.801Z,40.47
2023-05-04T01:15:50.771Z,47.97
2023-05-04T01:18:18.313Z,45.97
2023-05-04T01:20:46.092Z,38.05
2023-05-04T01:23:13.496Z,35.05
2023-05-04T01:26:05.957Z,42.33
2023-05-04T01:28:50.731Z,43.42
2023-05-04T01:31:22.866Z,43.08
2023-05-04T01:33:54.027Z,64.75
2023-05-04T01:36:22.288Z,56.72
2023-05-04T01:38:53.181Z,39.42
2023-05-04T01:41:21.625Z,50.92
2023-05-04T01:43:50.913Z,43.53
2023-05-04T01:46:18.486Z,46.75
2023-05-04T01:48:46.028Z,61.45
2023-05-04T01:51:13.446Z,59.33
2023-05-04T01:53:40.921Z,38.95
2023-05-04T01:56:08.424Z,43.83
2023-05-04T01:58:35.909Z,53.25
2023-05-04T02:01:03.419Z,54.15
2023-05-04T02:03:32.454Z,49.67
2023-05-04T02:06:01.166Z,54.83
2023-05-04T02:08:28.643Z,41.17
2023-05-04T02:10:56.031Z,42.47
2023-05-04T02:13:24.759Z,37.08
2023-05-04T02:15:52.035Z,56.10
2023-05-04T02:18:19.311Z,54.55
2023-05-04T02:20:46.674Z,57.17
2023-05-04T02:23:15.590Z,51.95
2023-05-04T02:25:42.778Z,51.15
2023-05-04T02:28:10.596Z,41.65
2023-05-04T02:30:37.975Z,54.90
2023-05-04T02:33:05.344Z,63.42
2023-05-04T02:35:32.891Z,50.85
2023-05-04T02:38:00.322Z,47.75
2023-05-04T02:40:27.785Z,53.78
2023-05-04T02:42:56.010Z,43.47
2023-05-04T02:45:23.419Z,48.47
2023-05-04T02:47:51.269Z,46.75
2023-05-04T02:50:18.595Z,54.58
2023-05-04T02:52:46.030Z,53.65
2023-05-04T02:55:13.428Z,53.15
2023-05-04T02:57:41.023Z,43.63
2023-05-04T03:00:09.015Z,48.30
2023-05-04T03:02:36.463Z,55.28
2023-05-04T03:05:04.479Z,47.50
2023-05-04T03:07:31.851Z,57.05
2023-05-04T03:10:00.215Z,48.22
2023-05-04T03:12:27.619Z,52.92
2023-05-04T03:14:55.271Z,53.70
2023-05-04T03:17:22.799Z,62.50
2023-05-04T03:19:50.700Z,53.88
2023-05-04T03:22:18.938Z,44.00
2023-05-04T03:24:46.798Z,54.42
2023-05-04T03:27:15.152Z,58.60
2023-05-04T03:29:42.860Z,56.55
2023-05-04T03:32:10.474Z,54.38
2023-05-04T03:34:37.876Z,64.10
2023-05-04T03:37:08.007Z,51.92
2023-05-04T03:39:35.503Z,49.47
2023-05-04T03:42:03.727Z,49.10
2023-05-04T03:44:31.270Z,61.10
2023-05-04T03:46:58.604Z,49.92
2023-05-04T03:49:26.176Z,63.50
2023-05-04T03:51:53.825Z,62.53
2023-05-04T03:54:23.232Z,53.95
2023-05-04T03:56:50.710Z,60.25
2023-05-04T03:59:18.869Z,63.53
2023-05-04T04:01:47.015Z,63.58
2023-05-04T04:04:14.464Z,52.15
2023-05-04T04:06:43.455Z,69.18
2023-05-04T04:09:10.996Z,52.05
2023-05-04T04:11:38.260Z,60.85
2023-05-04T04:14:06.525Z,51.35
2023-05-04T04:16:33.840Z,66.70
2023-05-04T04:19:02.075Z,50.72
2023-05-04T04:21:29.572Z,61.65
2023-05-04T04:23:56.956Z,62.78
2023-05-04T04:26:24.341Z,69.57
2023-05-04T04:28:51.832Z,71.80
2023-05-04T04:31:19.977Z,61.60
2023-05-04T04:33:49.432Z,59.58
2023-05-04T04:36:16.926Z,61.50
2023-05-04T04:38:44.851Z,52.70
2023-05-04T04:41:12.247Z,58.72
2023-05-04T04:43:39.600Z,61.33
2023-05-04T04:46:06.994Z,53.97
2023-05-04T04:48:34.459Z,51.10
2023-05-04T04:51:01.815Z,58.33
2023-05-04T04:53:29.111Z,64.05
2023-05-04T04:55:56.453Z,56.90
2023-05-04T04:58:23.764Z,78.78
2023-05-04T05:00:52.833Z,57.17
2023-05-04T05:03:20.253Z,62.85
2023-05-04T05:05:47.596Z,62.35
2023-05-04T05:08:15.105Z,57.03
2023-05-04T05:10:43.940Z,54.55
2023-05-04T05:13:11.691Z,59.05
2023-05-04T05:15:39.280Z,56.33
2023-05-04T05:18:07.141Z,59.65
2023-05-04T05:20:34.585Z,59.30
2023-05-04T05:23:01.878Z,55.92
2023-05-04T05:25:29.892Z,63.28
2023-05-04T05:27:57.220Z,50.10
2023-05-04T05:30:24.900Z,81.88
2023-05-04T05:32:53.664Z,57.35
2023-05-04T05:35:21.305Z,59.88
2023-05-04T05:37:49.467Z,56.15
2023-05-04T05:40:16.875Z,53.13
2023-05-04T05:42:45.065Z,50.33
2023-05-04T05:45:14.025Z,55.60
2023-05-04T05:47:45.130Z,56.40
2023-05-04T05:50:13.890Z,58.08
2023-05-04T05:53:01.871Z,47.35
2023-05-04T05:58:10.853Z,49.85
2023-05-04T06:00:41.546Z,55.70
2023-05-04T06:03:09.120Z,62.30
2023-05-04T06:05:36.870Z,52.20
2023-05-04T06:08:04.464Z,50.03
2023-05-04T06:10:32.139Z,58.72
2023-05-04T06:13:46.868Z,35.28
2023-05-04T06:15:52.745Z,41.22
2023-05-04T06:18:21.029Z,51.65
2023-05-04T06:20:48.644Z,56.80
2023-05-04T06:23:16.652Z,55.85
2023-05-04T06:25:44.072Z,56.63
2023-05-04T06:28:11.516Z,45.92
2023-05-04T06:30:38.983Z,60.17
2023-05-04T06:33:07.379Z,54.88
2023-05-04T06:35:35.283Z,45.00
2023-05-04T06:38:03.299Z,53.08
2023-05-04T06:40:30.954Z,60.95
2023-05-04T06:42:58.708Z,37.80
2023-05-04T06:45:26.530Z,52.63
2023-05-04T06:48:01.377Z,59.60
2023-05-04T06:50:29.264Z,60.00
2023-05-04T06:53:23.690Z,52.80
2023-05-04T06:56:34.830Z,42.42
2023-05-04T06:59:38.195Z,53.53
2023-05-04T07:02:33.915Z,39.67
2023-05-04T07:05:03.083Z,52.47
2023-05-04T07:14:12.319Z,46.00
2023-05-04T07:16:40.089Z,31.05
2023-05-04T07:19:13.086Z,27.77
2023-05-04T07:21:49.006Z,50.75
2023-05-04T07:24:16.887Z,39.40
2023-05-04T07:26:44.978Z,39.92
2023-05-04T07:29:45.721Z,41.95
2023-05-04T07:32:19.469Z,32.15
2023-05-04T07:34:56.760Z,35.13
2023-05-04T07:37:54.377Z,29.85
2023-05-04T07:40:37.897Z,45.63
2023-05-04T07:43:15.986Z,33.80
2023-05-04T07:45:43.917Z,39.65
2023-05-04T07:48:33.894Z,44.42
2023-05-04T07:51:30.862Z,34.72
2023-05-04T07:53:58.627Z,42.78
2023-05-04T07:57:09.565Z,47.83
2023-05-04T07:59:35.281Z,40.28
2023-05-04T08:02:28.183Z,41.75
2023-05-04T08:05:15.119Z,44.03
2023-05-04T08:07:42.998Z,47.53
2023-05-04T08:10:29.399Z,46.28
2023-05-04T08:12:59.744Z,41.38
2023-05-04T08:15:28.396Z,42.58
2023-05-04T08:21:00.248Z,35.92
2023-05-04T08:23:37.473Z,43.83
2023-05-04T08:26:19.119Z,40.38
2023-05-04T08:28:47.443Z,37.45
2023-05-04T08:31:30.565Z,41.55
2023-05-04T08:34:01.608Z,36.33
2023-05-04T08:36:38.619Z,48.72
2023-05-04T08:47:08.078Z,32.42
2023-05-04T08:49:35.578Z,42.20
2023-05-04T08:52:11.252Z,40.00
2023-05-04T08:54:40.048Z,40.50
2023-05-04T08:57:07.900Z,48.90
2023-05-04T08:59:36.878Z,33.42
2023-05-04T09:02:05.975Z,39.88
2023-05-04T09:04:35.884Z,35.78
2023-05-04T09:07:03.860Z,35.70
2023-05-04T09:09:31.707Z,34.47
2023-05-04T09:12:00.339Z,39.28
2023-05-04T09:14:35.044Z,40.17
2023-05-04T09:17:03.948Z,34.03
2023-05-04T09:19:34.907Z,28.00
2023-05-04T09:22:20.333Z,30.02
2023-05-04T09:24:47.883Z,45.55
2023-05-04T09:27:18.087Z,40.03
2023-05-04T09:29:53.875Z,34.67
2023-05-04T09:32:24.262Z,43.30
2023-05-04T09:34:53.361Z,59.53
2023-05-04T09:37:22.537Z,41.78
2023-05-04T09:39:56.105Z,32.00
2023-05-04T09:42:24.887Z,49.45
2023-05-04T09:45:21.752Z,40.00
2023-05-04T09:48:02.491Z,39.65
2023-05-04T09:50:33.255Z,31.38
2023-05-04T09:53:02.609Z,31.52
2023-05-04T09:55:30.271Z,29.13
2023-05-04T09:57:59.833Z,46.08
2023-05-04T10:00:27.308Z,34.17
2023-05-04T10:02:55.671Z,57.40
2023-05-04T10:05:31.547Z,26.58
2023-05-04T10:08:00.753Z,44.58
2023-05-04T10:10:35.988Z,32.40
2023-05-04T10:13:03.588Z,35.33
2023-05-04T10:15:32.190Z,32.85
2023-05-04T10:18:24.306Z,50.17
2023-05-04T10:21:25.796Z,39.35
2023-05-04T10:23:53.267Z,30.17
2023-05-04T10:26:43.903Z,37.50
2023-05-04T10:29:29.270Z,41.65
2023-05-04T10:32:05.824Z,38.13
2023-05-04T10:34:34.955Z,41.72
2023-05-04T10:37:03.818Z,38.85
2023-05-04T10:39:33.565Z,36.22
2023-05-04T10:42:08.371Z,40.30
2023-05-04T10:44:55.095Z,32.05
2023-05-04T10:47:33.116Z,38.70
2023-05-04T10:50:12.304Z,28.75
2023-05-04T10:52:47.676Z,36.92
2023-05-04T10:55:16.015Z,35.22
2023-05-04T10:57:50.823Z,37.53
2023-05-04T11:00:19.225Z,40.30
2023-05-04T11:02:48.189Z,42.10
2023-05-04T11:05:20.487Z,33.53
2023-05-04T11:07:53.513Z,41.45
2023-05-04T11:10:25.653Z,41.60
2023-05-04T11:13:05.771Z,44.13
2023-05-04T11:15:46.428Z,35.13
2023-05-04T11:18:14.510Z,38.10
2023-05-04T11:20:47.520Z,40.15
2023-05-04T11:23:16.852Z,38.10
2023-05-04T11:25:47.458Z,35.78
2023-05-04T11:28:15.023Z,39.58
2023-05-04T11:30:44.655Z,27.77
2023-05-04T11:33:14.463Z,43.13
2023-05-04T11:35:43.889Z,33.67
2023-05-04T11:38:13.281Z,29.85
2023-05-04T11:40:48.106Z,29.63
2023-05-04T11:43:16.242Z,39.30
2023-05-04T11:45:46.428Z,39.10
2023-05-04T11:48:14.693Z,33.83
2023-05-04T11:50:45.661Z,42.45
2023-05-04T11:53:14.171Z,37.28
2023-05-04T11:55:42.742Z,48.13
2023-05-04T11:58:12.158Z,37.17
2023-05-04T12:00:44.863Z,29.17
2023-05-04T12:03:18.062Z,35.33
2023-05-04T12:05:52.732Z,29.17
2023-05-04T12:08:32.797Z,36.13
2023-05-04T12:11:16.168Z,30.10
2023-05-04T12:13:45.720Z,51.72
2023-05-04T12:16:18.436Z,34.40
2023-05-04T12:18:47.430Z,50.33
2023-05-04T12:21:15.805Z,40.45
2023-05-04T12:23:43.650Z,37.58
2023-05-04T12:26:11.961Z,54.45
2023-05-04T12:28:41.896Z,43.28
2023-05-04T12:31:12.460Z,35.15
2023-05-04T12:33:39.876Z,41.28
2023-05-04T12:36:08.248Z,42.53
2023-05-04T12:38:35.776Z,31.98
2023-05-04T12:41:04.522Z,32.53
2023-05-04T12:43:33.079Z,35.22
2023-05-04T12:46:00.658Z,44.97
2023-05-04T12:48:31.927Z,42.15
2023-05-04T12:51:00.919Z,39.97
2023-05-04T12:53:30.117Z,48.35
2023-05-04T12:56:01.068Z,40.30
2023-05-04T12:58:28.944Z,40.55
2023-05-04T13:00:57.835Z,58.30
2023-05-04T13:03:25.938Z,43.90
2023-05-04T13:05:53.555Z,52.10
2023-05-04T13:08:22.136Z,45.83
2023-05-04T13:10:50.600Z,38.55
2023-05-04T13:13:18.965Z,51.55
2023-05-04T13:15:53.026Z,40.85
2023-05-04T13:18:20.795Z,44.45
2023-05-04T13:20:48.418Z,33.92
2023-05-04T13:23:16.051Z,45.50
2023-05-04T13:25:46.839Z,40.15
2023-05-04T13:28:14.190Z,52.00
2023-05-04T13:30:41.565Z,44.83
2023-05-04T13:33:20.767Z,59.85
2023-05-04T13:35:58.124Z,41.60
2023-05-04T13:38:26.362Z,38.50
2023-05-04T13:40:55.416Z,43.78
2023-05-04T13:43:22.880Z,46.85
2023-05-04T13:45:50.562Z,45.65
2023-05-04T13:48:18.229Z,38.25
2023-05-04T13:50:46.054Z,31.23
2023-05-04T13:53:13.506Z,48.90
2023-05-04T13:55:41.403Z,45.97
2023-05-04T13:58:09.172Z,46.72
2023-05-04T14:00:37.176Z,53.15
2023-05-04T14:03:05.075Z,49.63
2023-05-04T14:05:32.602Z,47.38
2023-05-04T14:08:00.025Z,46.83
2023-05-04T14:10:27.634Z,40.95
2023-05-04T14:12:56.001Z,42.70
2023-05-04T14:15:23.549Z,44.97
2023-05-04T14:17:51.026Z,48.33
2023-05-04T14:20:19.112Z,53.83
2023-05-04T14:22:46.366Z,46.03
2023-05-04T14:25:14.059Z,53.03
2023-05-04T14:27:44.511Z,54.95
2023-05-04T14:30:12.472Z,54.33
2023-05-04T14:32:41.263Z,40.83
2023-05-04T14:35:10.495Z,39.67
2023-05-04T14:37:39.662Z,37.63
2023-05-04T14:40:11.167Z,49.08
2023-05-04T14:42:39.287Z,53.50
2023-05-04T14:45:08.833Z,43.50
2023-05-04T14:47:36.580Z,42.22
2023-05-04T14:50:05.268Z,37.85
2023-05-04T14:52:34.134Z,36.97
2023-05-04T14:55:02.644Z,43.90
2023-05-04T14:57:30.075Z,44.65
2023-05-04T14:59:57.731Z,31.13
2023-05-04T15:02:25.176Z,33.45
2023-05-04T15:04:52.985Z,45.45
2023-05-04T15:07:20.802Z,34.35
2023-05-04T15:09:48.285Z,35.67
2023-05-04T15:12:16.515Z,50.40
2023-05-04T15:14:44.083Z,38.40
2023-05-04T15:17:11.367Z,43.33
2023-05-04T15:19:39.709Z,54.20
2023-05-04T15:22:07.413Z,36.15
2023-05-04T15:24:34.855Z,39.92
2023-05-04T15:27:02.319Z,40.33
2023-05-04T15:29:30.778Z,42.65
2023-05-04T15:31:58.185Z,45.45
2023-05-04T15:34:25.719Z,44.22
2023-05-04T15:36:53.561Z,48.53
2023-05-04T15:39:20.982Z,48.42
2023-05-04T15:41:48.303Z,41.47
2023-05-04T15:44:15.746Z,45.67
2023-05-04T15:46:43.343Z,49.38
2023-05-04T15:49:10.740Z,35.03
2023-05-04T15:51:38.267Z,43.20
2023-05-04T15:54:05.865Z,51.67
2023-05-04T15:56:33.230Z,57.65
2023-05-04T15:59:01.306Z,52.90
2023-05-04T16:01:29.075Z,53.72
2023-05-04T16:03:56.630Z,45.22
2023-05-04T16:06:24.078Z,45.42
2023-05-04T16:08:51.637Z,44.88
2023-05-04T16:11:19.045Z,45.08
2023-05-04T16:13:46.438Z,50.40
2023-05-04T16:16:13.895Z,45.83
2023-05-04T16:18:43.321Z,52.45
2023-05-04T16:21:11.220Z,53.85
2023-05-04T16:23:40.563Z,40.00
2023-05-04T16:26:08.422Z,29.13
2023-05-04T16:28:35.885Z,16.00
2023-05-04T16:31:06.043Z,12.68
2023-05-04T16:33:33.530Z,10.32
2023-05-04T16:36:00.924Z,17.95
2023-05-04T16:38:29.648Z,6.95
2023-05-04T16:40:56.900Z,5.80
2023-05-04T16:43:24.425Z,10.75
2023-05-04T16:45:51.930Z,16.40
2023-05-04T16:48:20.860Z,6.25
2023-05-04T16:50:48.214Z,16.15
2023-05-04T16:53:16.316Z,8.88
2023-05-04T16:55:43.650Z,15.68
2023-05-04T16:58:10.966Z,10.45
2023-05-04T17:00:41.939Z,8.68
2023-05-04T17:03:09.392Z,8.40
2023-05-04T17:05:36.833Z,7.72
2023-05-04T17:08:08.338Z,6.47
2023-05-04T17:10:35.720Z,7.50
2023-05-04T17:13:03.196Z,4.85
2023-05-04T17:15:30.578Z,6.18
2023-05-04T17:17:58.017Z,3.63
2023-05-04T17:20:29.944Z,14.38
2023-05-04T17:23:00.573Z,7.05
2023-05-04T17:25:28.078Z,5.13
2023-05-04T17:27:55.587Z,7.40
2023-05-04T17:30:25.775Z,7.63
2023-05-04T17:32:54.641Z,5.13
2023-05-04T17:35:26.606Z,4.03
2023-05-04T17:37:58.817Z,3.08
2023-05-04T17:40:27.763Z,5.97
2023-05-04T17:42:56.085Z,6.45
2023-05-04T17:45:23.522Z,8.63
2023-05-04T17:47:51.284Z,7.05
2023-05-04T17:50:18.984Z,7.80
2023-05-04T17:52:51.773Z,4.93
2023-05-04T17:55:19.324Z,4.50
2023-05-04T17:57:46.767Z,4.28
2023-05-04T18:00:14.935Z,4.43
2023-05-04T18:02:42.443Z,7.75
2023-05-04T18:05:10.384Z,10.07
2023-05-04T18:07:38.597Z,5.15
2023-05-04T18:10:06.717Z,5.60
2023-05-04T18:12:37.793Z,7.38
2023-05-04T18:15:09.127Z,9.05
2023-05-04T18:17:38.355Z,4.57
2023-05-04T18:20:08.301Z,9.00
2023-05-04T18:22:36.869Z,25.98
2023-05-04T18:25:04.549Z,5.95
2023-05-04T18:27:33.559Z,7.63
2023-05-04T18:30:01.789Z,9.95
2023-05-04T18:32:29.523Z,10.35
2023-05-04T18:35:00.028Z,6.57
2023-05-04T18:37:31.042Z,9.40
2023-05-04T18:39:58.919Z,7.07
2023-05-04T18:42:29.047Z,11.20
2023-05-04T18:44:56.830Z,7.85
2023-05-04T18:47:24.158Z,3.67
2023-05-04T18:49:54.458Z,8.00
2023-05-04T18:52:22.236Z,7.53
2023-05-04T18:54:49.744Z,9.75
2023-05-04T18:57:18.163Z,11.25
2023-05-04T18:59:46.014Z,7.47
2023-05-04T19:02:13.340Z,11.65
2023-05-04T19:04:41.216Z,17.75
2023-05-04T19:07:09.897Z,6.97
2023-05-04T19:09:38.728Z,9.73
2023-05-04T19:12:06.617Z,8.25
2023-05-04T19:14:34.001Z,5.75
2023-05-04T19:17:04.469Z,8.00
2023-05-04T19:19:36.447Z,8.25
2023-05-04T19:22:04.476Z,9.70
2023-05-04T19:24:34.685Z,15.32
2023-05-04T19:27:02.751Z,13.18
2023-05-04T19:29:30.687Z,12.57
2023-05-04T19:31:59.519Z,9.90
2023-05-04T19:34:29.110Z,16.33
2023-05-04T19:36:59.266Z,8.18
2023-05-04T19:39:26.882Z,16.92
2023-05-04T19:41:54.825Z,6.57
2023-05-04T19:44:22.210Z,12.77
2023-05-04T19:46:51.691Z,11.60
2023-05-04T19:49:21.826Z,11.50
2023-05-04T19:51:49.153Z,14.45
2023-05-04T19:54:16.747Z,9.85
2023-05-04T19:56:44.580Z,10.35
2023-05-04T19:59:15.082Z,11.18
2023-05-04T20:01:42.550Z,14.23
2023-05-04T20:04:10.343Z,11.70
2023-05-04T20:06:37.941Z,9.52
2023-05-04T20:09:05.597Z,10.77
2023-05-04T20:11:39.217Z,9.30
2023-05-04T20:14:09.656Z,10.60
2023-05-04T20:16:38.454Z,10.93
2023-05-04T20:19:07.530Z,7.15
2023-05-04T20:21:37.718Z,13.93
2023-05-04T20:24:07.473Z,18.13
2023-05-04T20:26:34.843Z,16.50
2023-05-04T20:29:02.159Z,13.65
2023-05-04T20:31:30.041Z,13.80
2023-05-04T20:33:57.818Z,16.00
2023-05-04T20:36:25.217Z,20.05
2023-05-04T20:38:54.191Z,16.83
2023-05-04T20:41:22.422Z,21.52
2023-05-04T20:43:50.325Z,20.13
2023-05-04T20:46:29.390Z,21.50
2023-05-04T20:49:07.386Z,15.70
2023-05-04T20:51:43.175Z,15.18
2023-05-04T20:54:17.942Z,13.82
2023-05-04T20:56:52.788Z,23.77
2023-05-04T20:59:46.903Z,17.42
2023-05-04T21:02:14.622Z,17.10
2023-05-04T21:04:43.376Z,16.95
2023-05-04T21:07:11.049Z,23.90
2023-05-04T21:12:21.175Z,22.60
2023-05-04T21:14:52.285Z,17.48
2023-05-04T21:17:20.195Z,15.40
2023-05-04T21:19:47.634Z,24.40
2023-05-04T21:22:17.636Z,23.67
2023-05-04T21:24:46.820Z,23.38
2023-05-04T21:28:11.097Z,25.42
2023-05-04T21:30:38.173Z,24.52
2023-05-04T21:34:12.381Z,25.60
2023-05-04T21:39:16.786Z,21.00
2023-05-04T21:41:47.789Z,20.45
2023-05-04T21:44:34.979Z,22.35
2023-05-04T21:47:08.301Z,20.40
2023-05-04T21:50:08.406Z,36.10
2023-05-04T21:52:36.258Z,17.42
2023-05-04T21:55:07.644Z,23.63
2023-05-04T21:57:43.077Z,19.58
2023-05-04T22:00:30.393Z,19.73
2023-05-04T22:03:16.043Z,23.65
2023-05-04T22:06:06.203Z,14.88
2023-05-04T22:09:09.203Z,19.88
2023-05-04T22:11:57.419Z,16.92
2023-05-04T22:14:32.962Z,16.42
2023-05-04T22:17:31.070Z,21.65
2023-05-04T22:19:58.675Z,9.35
2023-05-04T22:22:26.345Z,15.27
2023-05-04T22:24:57.612Z,15.65
2023-05-04T22:27:32.798Z,10.15
2023-05-04T22:30:06.743Z,16.60
2023-05-04T22:32:35.277Z,8.35
2023-05-04T22:35:03.560Z,7.57
2023-05-04T22:37:31.125Z,5.20
2023-05-04T22:40:08.676Z,4.93
2023-05-04T22:42:36.827Z,9.23
2023-05-04T22:45:14.928Z,6.28
2023-05-04T22:47:43.796Z,9.05
2023-05-04T22:50:17.618Z,10.05
2023-05-04T22:52:49.606Z,11.95
2023-05-04T22:56:21.363Z,9.57
2023-05-04T22:58:23.527Z,8.77
2023-05-04T23:01:18.290Z,13.25
2023-05-04T23:03:46.625Z,1.55
2023-05-04T23:06:15.289Z,8.93
2023-05-04T23:08:46.410Z,6.22
2023-05-04T23:11:14.348Z,6.40
2023-05-04T23:13:42.100Z,7.63
2023-05-04T23:19:10.904Z,8.82
2023-05-04T23:21:50.152Z,11.25
2023-05-04T23:24:18.222Z,6.50
2023-05-04T23:26:45.940Z,5.30
2023-05-04T23:29:20.138Z,9.82
2023-05-04T23:34:33.727Z,10.52
2023-05-04T23:40:19.193Z,6.68
2023-05-04T23:43:17.079Z,17.58
2023-05-04T23:45:44.685Z,10.18
2023-05-04T23:48:12.546Z,13.52
2023-05-04T23:51:07.279Z,8.85
2023-05-04T23:53:45.945Z,11.82
2023-05-04T23:56:15.997Z,8.20
2023-05-04T23:59:59.532Z,10.38
